Greenville, SC

10:02 PM EST on February 27, 2015 (GMT -0500)
APRSWXNET Greenville SC US | Change Station
CLOSE
Current Station
Personal Weather Station
Location: Greenville, SC
Elevation: 961 ft
Nearby Weather Stations

Elev 961 ft 34.84 °N, 82.40 °W | Updated 35 minutes ago

Clear
Clear
40 °F
Feels Like 40 °F
N
0
Wind Variable Wind from North
Gusts 0.0 mph

Today
High -- | Low -- °F
--% Chance of Precip.
Yesterday
High -- | Low -- °F
Precip. -- in
7:01 AM 6:23 PM
Waxing Gibbous, 74% visible
Pressure 30.46 in
Visibility 10.0 miles
Clouds Clear
Windchill 40 °F
Dew Point 26 °F
Humidity 56%
Rainfall -999.00 in
Snow Depth Not available.
UV 0 out of 12
Pollen 4.50 out of 12
Air Quality Not available.
Flu Activity Not available.
METAR KGMU 280253Z 02008KT 10SM CLR 03/M07 A3044 RMK AO2 SLP313 T00331072 52027

More Conditions Fewer Conditions

Pressure 30.46 in
Visibility 10.0 miles
Clouds Clear
Windchill 40 °F
Dew Point 26 °F
Humidity 56%
Rainfall -999.00 in
Snow Depth Not available.
UV 0 out of 12
Pollen 4.50 out of 12
Air Quality Not available.
Flu Activity Not available.
METAR KGMU 280253Z 02008KT 10SM CLR 03/M07 A3044 RMK AO2 SLP313 T00331072 52027

More Conditions Fewer Conditions

10-Day Weather Forecast

Almanac

Astronomy

Feb. 27, 2015 Rise Set
Actual Time
Civil Twilight
Nautical Twilight
Astronomical Twilight
Moon
Length of Visible Light
Length of Day
Tomorrow will be .
, % of the Moon is Illuminated

Today's Extremes

State Highs State Lows

Community

WunderPhotos

Upload Photos

1,800,951 photos uploaded!

WunderBlogs® & News

Nearby

Air Quality

  Air Quality AQ Index Pollutant
Not available.

Snow Depth

Station Depth Elevation

Earthquake Activity

City Distance Mag. Time & Date
Minimum magnitude displayed is 2.5.

Coastal Water Temperatures

Place Temperature

Nearby Weather Stations